Time;durP1;ratioP1;P1;durP2;ratioP2;P2;SDS_P1;SDS_P2;PMS_P1;PMS_P2;Temp;Humidity;BMP_temperature;BMP_pressure;BME280_temperature;BME280_humidity;BME280_pressure;Samples;Min_cycle;Max_cycle;Signal;HPM_P1;HPM_P2
2022/08/05 00:06:06;;;;;;;;;;;;;;;;;;21166167;28;19924;-58
2022/08/05 00:16:08;;;;;;;;;;;;;;;;;;21164168;28;19976;-57
2022/08/05 00:26:10;;;;;;;;;;;;;;;;;;21163475;28;20294;-57
2022/08/05 00:36:13;;;;;;;;;;;;;;;;;;21162172;28;19934;-55
2022/08/05 00:46:15;;;;;;;;;;;;;;;;;;21172537;28;19928;-60
2022/08/05 00:56:16;;;;;;;;;;;;;;;;;;21175634;28;20369;-64
2022/08/05 01:06:18;;;;;;;;;;;;;;;;;;21174982;28;19969;-60
2022/08/05 01:16:20;;;;;;;;;;;;;;;;;;21172830;28;19923;-58
2022/08/05 01:26:25;;;;;;;;;;;;;;;;;;21173325;28;19931;-57
2022/08/05 01:36:28;;;;;;;;;;;;;;;;;;21171764;28;19923;-61
2022/08/05 01:46:34;;;;;;;;;;;;;;;;;;21171599;28;19924;-58
2022/08/05 01:56:42;;;;;;;;;;;;;;;;;;21171007;28;19927;-62
2022/08/05 02:06:53;;;;;;;;;;;;;;;;;;21170180;28;19927;-56
2022/08/05 02:17:03;;;;;;;;;;;;;;;;;;21168813;28;20376;-56
2022/08/05 02:27:08;;;;;;;;;;;;;;;;;;21253460;27;19923;-58
2022/08/05 02:37:11;;;;;;;;;;;;;;;;;;21251940;27;20356;-57
2022/08/05 02:47:14;;;;;;;;;;;;;;;;;;21251869;27;20405;-59
2022/08/05 02:57:16;;;;;;;;;;;;;;;;;;21251433;27;20010;-56
2022/08/05 03:07:18;;;;;;;;;;;;;;;;;;21251229;27;20010;-64
2022/08/05 03:17:20;;;;;;;;;;;;;;;;;;21249533;27;19962;-57
2022/08/05 03:27:22;;;;;;;;;;;;;;;;;;21248823;27;19923;-56
2022/08/05 03:37:24;;;;;;;;;;;;;;;;;;21264402;27;19967;-57
2022/08/05 03:47:27;;;;;;;;;;;;;;;;;;21256699;28;19923;-59
2022/08/05 03:57:31;;;;;;;;;;;;;;;;;;21259440;28;19931;-61
2022/08/05 04:07:33;;;;;;;;;;;;;;;;;;21252397;28;20032;-61
2022/08/05 04:17:35;;;;;;;;;;;;;;;;;;21258232;27;20042;-59
2022/08/05 04:27:37;;;;;;;;;;;;;;;;;;21262843;27;20022;-59
2022/08/05 04:37:39;;;;;;;;;;;;;;;;;;21261993;27;20298;-55
2022/08/05 04:47:41;;;;;;;;;;;;;;;;;;21260793;27;19923;-55
2022/08/05 04:57:44;;;;;;;;;;;;;;;;;;21260004;27;20345;-56
2022/08/05 05:07:45;;;;;;;;;;;;;;;;;;21259735;27;19931;-56
2022/08/05 05:17:47;;;;;;;;;;;;;;;;;;21258236;27;19945;-58
2022/08/05 05:27:51;;;;;;;;;;;;;;;;;;21258158;27;20399;-59
2022/08/05 05:37:53;;;;;;;;;;;;;;;;;;21256938;27;19974;-55
2022/08/05 05:47:55;;;;;;;;;;;;;;;;;;21256964;27;19931;-55
2022/08/05 05:57:57;;;;;;;;;;;;;;;;;;21257920;27;19924;-64
2022/08/05 06:08:17;;;;;;;;;;;;;;;;;;21254272;27;19920;-56
2022/08/05 06:18:19;;;;;;;;;;;;;;;;;;21253575;27;20391;-59
2022/08/05 06:28:21;;;;;;;;;;;;;;;;;;21252841;27;19953;-63
2022/08/05 06:38:23;;;;;;;;;;;;;;;;;;21252237;27;20019;-57
2022/08/05 06:48:24;;;;;;;;;;;;;;;;;;21251525;27;20272;-58
2022/08/05 06:58:27;;;;;;;;;;;;;;;;;;21251143;27;20023;-64
2022/08/05 07:08:28;;;;;;;;;;;;;;;;;;21249262;27;19976;-63
2022/08/05 07:18:30;;;;;;;;;;;;;;;;;;21248900;27;20010;-62
2022/08/05 07:28:32;;;;;;;;;;;;;;;;;;21265230;27;20379;-64
2022/08/05 07:38:34;;;;;;;;;;;;;;;;;;21248510;28;19930;-61
2022/08/05 07:48:36;;;;;;;;;;;;;;;;;;21249710;27;19923;-58
2022/08/05 07:58:38;;;;;;;;;;;;;;;;;;21265483;27;19924;-62
2022/08/05 08:08:39;;;;;;;;;;;;;;;;;;21264636;27;20424;-61
2022/08/05 08:18:41;;;;;;;;;;;;;;;;;;21262744;27;19934;-61
2022/08/05 08:28:43;;;;;;;;;;;;;;;;;;21262997;27;19935;-64
2022/08/05 08:38:45;;;;;;;;;;;;;;;;;;21262131;27;20379;-56
2022/08/05 08:48:47;;;;;;;;;;;;;;;;;;21261181;27;19923;-61
2022/08/05 08:58:49;;;;;;;;;;;;;;;;;;21259477;27;19946;-57
2022/08/05 09:08:51;;;;;;;;;;;;;;;;;;21257890;27;19945;-58
2022/08/05 09:18:52;;;;;;;;;;;;;;;;;;21258618;27;20375;-55
2022/08/05 09:28:55;;;;;;;;;;;;;;;;;;21257550;27;19923;-64
2022/08/05 09:38:57;;;;;;;;;;;;;;;;;;21256405;27;19970;-64
2022/08/05 09:49:03;;;;;;;;;;;;;;;;;;21254693;27;19928;-59
2022/08/05 09:59:05;;;;;;;;;;;;;;;;;;21255041;27;19968;-64
2022/08/05 10:09:07;;;;;;;;;;;;;;;;;;21237079;27;19923;-58
2022/08/05 10:19:09;;;;;;;;;;;;;;;;;;21251451;27;19924;-58
2022/08/05 10:29:10;;;;;;;;;;;;;;;;;;21252536;27;19924;-56
2022/08/05 10:39:12;;;;;;;;;;;;;;;;;;21250559;27;19923;-58
2022/08/05 10:49:14;;;;;;;;;;;;;;;;;;21249256;27;19923;-62
2022/08/05 10:59:16;;;;;;;;;;;;;;;;;;21249184;27;19923;-57
2022/08/05 11:09:20;;;;;;;;;;;;;;;;;;21263689;27;20205;-60
2022/08/05 11:19:22;;;;;;;;;;;;;;;;;;21247927;27;19931;-62
2022/08/05 11:29:23;;;;;;;;;;;;;;;;;;21248822;27;20028;-57
2022/08/05 11:39:27;;;;;;;;;;;;;;;;;;21247688;28;20325;-56
2022/08/05 11:49:29;;;;;;;;;;;;;;;;;;21248542;28;19963;-58
2022/08/05 11:59:32;;;;;;;;;;;;;;;;;;21246957;28;19962;-57
2022/08/05 12:09:34;;;;;;;;;;;;;;;;;;21262236;27;20022;-57
2022/08/05 12:19:37;;;;;;;;;;;;;;;;;;21246628;28;20383;-56
2022/08/05 12:29:39;;;;;;;;;;;;;;;;;;21245922;28;19924;-56
2022/08/05 12:39:41;;;;;;;;;;;;;;;;;;21254491;27;19923;-57
2022/08/05 12:49:43;;;;;;;;;;;;;;;;;;21260591;27;20287;-57
2022/08/05 12:59:45;;;;;;;;;;;;;;;;;;21259134;27;19937;-55
2022/08/05 13:09:47;;;;;;;;;;;;;;;;;;21260161;27;19924;-56
2022/08/05 13:19:49;;;;;;;;;;;;;;;;;;21259430;27;19966;-58
2022/08/05 13:29:57;;;;;;;;;;;;;;;;;;21259077;27;19955;-56
2022/08/05 13:39:59;;;;;;;;;;;;;;;;;;21256487;27;19984;-55
2022/08/05 13:50:01;;;;;;;;;;;;;;;;;;21255226;27;19923;-57
2022/08/05 14:00:03;;;;;;;;;;;;;;;;;;21255404;27;20085;-59
2022/08/05 14:10:05;;;;;;;;;;;;;;;;;;21254566;27;20014;-56
2022/08/05 14:20:07;;;;;;;;;;;;;;;;;;21252507;27;19930;-57
2022/08/05 14:30:09;;;;;;;;;;;;;;;;;;21252392;27;19965;-56
2022/08/05 14:40:11;;;;;;;;;;;;;;;;;;21251480;27;19931;-60
2022/08/05 14:50:13;;;;;;;;;;;;;;;;;;21251720;27;20394;-64
2022/08/05 15:00:15;;;;;;;;;;;;;;;;;;21249662;27;20368;-66
2022/08/05 15:10:16;;;;;;;;;;;;;;;;;;21265649;27;19923;-66
2022/08/05 15:20:19;;;;;;;;;;;;;;;;;;21249021;27;19923;-63
2022/08/05 15:30:21;;;;;;;;;;;;;;;;;;21250025;27;20127;-61
2022/08/05 15:40:23;;;;;;;;;;;;;;;;;;21248610;28;20014;-63
2022/08/05 15:50:25;;;;;;;;;;;;;;;;;;21247257;28;20068;-65
2022/08/05 16:00:27;;;;;;;;;;;;;;;;;;21247143;28;19924;-57
2022/08/05 16:10:28;;;;;;;;;;;;;;;;;;21252363;27;20299;-64
2022/08/05 16:20:30;;;;;;;;;;;;;;;;;;21263888;27;19923;-60
2022/08/05 16:30:33;;;;;;;;;;;;;;;;;;21263322;27;19992;-57
2022/08/05 16:40:34;;;;;;;;;;;;;;;;;;21261559;27;20410;-67
2022/08/05 16:50:36;;;;;;;;;;;;;;;;;;21264512;27;20096;-61
2022/08/05 17:00:38;;;;;;;;;;;;;;;;;;21260513;27;19923;-65
2022/08/05 17:10:41;;;;;;;;;;;;;;;;;;21260173;27;20070;-66
2022/08/05 17:20:43;;;;;;;;;;;;;;;;;;21258083;27;19930;-65
2022/08/05 17:30:46;;;;;;;;;;;;;;;;;;21258511;27;19924;-66
2022/08/05 17:40:49;;;;;;;;;;;;;;;;;;21258048;27;19948;-66
2022/08/05 17:50:51;;;;;;;;;;;;;;;;;;21264827;27;19968;-66
2022/08/05 18:00:52;;;;;;;;;;;;;;;;;;21256974;27;19953;-64
2022/08/05 18:10:54;;;;;;;;;;;;;;;;;;21256774;27;19927;-56
2022/08/05 18:20:56;;;;;;;;;;;;;;;;;;21254798;27;19930;-64
2022/08/05 18:30:58;;;;;;;;;;;;;;;;;;21252640;27;20362;-55
2022/08/05 18:41:00;;;;;;;;;;;;;;;;;;21251985;27;19927;-66
2022/08/05 19:01:23;;;;;;;;;;;;;;;;;;21249557;27;19923;-62
2022/08/05 19:11:24;;;;;;;;;;;;;;;;;;21249895;27;20328;-58
2022/08/05 19:21:26;;;;;;;;;;;;;;;;;;21248301;27;19923;-58
2022/08/05 19:31:29;;;;;;;;;;;;;;;;;;21247586;27;19923;-58
2022/08/05 19:41:31;;;;;;;;;;;;;;;;;;21247895;27;19976;-65
2022/08/05 19:51:33;;;;;;;;;;;;;;;;;;21261392;27;20035;-64
2022/08/05 20:01:35;;;;;;;;;;;;;;;;;;21264549;27;19924;-55
2022/08/05 20:11:37;;;;;;;;;;;;;;;;;;21280462;27;19931;-56
2022/08/05 20:21:39;;;;;;;;;;;;;;;;;;21264550;27;19923;-63
2022/08/05 20:31:41;;;;;;;;;;;;;;;;;;21264266;27;19934;-64
2022/08/05 20:41:45;;;;;;;;;;;;;;;;;;21262253;27;19984;-66
2022/08/05 20:51:48;;;;;;;;;;;;;;;;;;21260673;27;19923;-65
2022/08/05 21:01:50;;;;;;;;;;;;;;;;;;21258453;27;19924;-66
2022/08/05 21:11:52;;;;;;;;;;;;;;;;;;21259743;27;19927;-66
2022/08/05 21:21:55;;;;;;;;;;;;;;;;;;21259691;27;19923;-68
2022/08/05 21:31:57;;;;;;;;;;;;;;;;;;21257861;27;20303;-63
2022/08/05 21:42:01;;;;;;;;;;;;;;;;;;21257654;27;19930;-65
2022/08/05 21:52:03;;;;;;;;;;;;;;;;;;21260421;27;19924;-67
2022/08/05 22:02:06;;;;;;;;;;;;;;;;;;21260467;27;19928;-60
2022/08/05 22:12:08;;;;;;;;;;;;;;;;;;21258535;27;20386;-64
2022/08/05 22:22:11;;;;;;;;;;;;;;;;;;21253639;27;20018;-64
2022/08/05 22:32:13;;;;;;;;;;;;;;;;;;21253403;27;19923;-63
2022/08/05 22:42:14;;;;;;;;;;;;;;;;;;21253567;27;19927;-67
2022/08/05 22:52:16;;;;;;;;;;;;;;;;;;21252624;27;19923;-62
2022/08/05 23:02:18;;;;;;;;;;;;;;;;;;21249759;27;20028;-62
2022/08/05 23:12:21;;;;;;;;;;;;;;;;;;21248988;27;19931;-60
2022/08/05 23:22:23;;;;;;;;;;;;;;;;;;21247501;27;19978;-64
2022/08/05 23:32:24;;;;;;;;;;;;;;;;;;21248450;27;19923;-64
2022/08/05 23:42:26;;;;;;;;;;;;;;;;;;21248554;28;20022;-59
2022/08/05 23:52:28;;;;;;;;;;;;;;;;;;21248835;28;19931;-62
